Time;durP1;ratioP1;P1;durP2;ratioP2;P2;SDS_P1;SDS_P2;PMS_P1;PMS_P2;Temp;Humidity;BMP_temperature;BMP_pressure;BME280_temperature;BME280_humidity;BME280_pressure;Samples;Min_cycle;Max_cycle;Signal;HPM_P1;HPM_P2
2022/11/07 00:01:57;;;;;;;8.07;4.40;;;10.40;99.90;;;;;;4204808;28;20052;-88
2022/11/07 00:03:58;;;;;;;8.57;3.97;;;10.50;99.90;;;;;;4221294;28;20107;-87
2022/11/07 00:05:58;;;;;;;7.50;3.65;;;10.50;99.90;;;;;;4234094;28;20454;-87
2022/11/07 00:08:00;;;;;;;8.52;3.72;;;10.50;99.90;;;;;;4233392;28;20101;-87
2022/11/07 00:10:03;;;;;;;11.65;4.68;;;10.50;99.90;;;;;;4217202;28;20044;-88
2022/11/07 00:12:04;;;;;;;6.60;3.97;;;10.50;99.90;;;;;;4251800;27;20390;-88
2022/11/07 00:14:06;;;;;;;10.48;3.70;;;10.60;99.90;;;;;;4233635;28;20078;-88
2022/11/07 00:16:09;;;;;;;10.68;3.80;;;10.60;99.90;;;;;;4233481;28;20525;-88
2022/11/07 00:18:10;;;;;;;7.47;3.78;;;10.60;99.90;;;;;;4251800;27;20091;-87
2022/11/07 00:20:11;;;;;;;7.65;3.25;;;10.60;99.90;;;;;;4233500;28;20051;-87
2022/11/07 00:22:12;;;;;;;8.60;4.07;;;10.60;99.90;;;;;;4232732;28;20132;-86
2022/11/07 00:24:16;;;;;;;9.73;4.30;;;10.70;99.90;;;;;;4234061;28;20065;-87
2022/11/07 00:26:17;;;;;;;7.47;3.40;;;10.60;99.90;;;;;;4223717;28;20087;-87
2022/11/07 00:28:17;;;;;;;10.30;4.13;;;10.70;99.90;;;;;;4226768;28;20417;-87
2022/11/07 00:30:18;;;;;;;8.95;3.63;;;10.70;99.90;;;;;;4234244;28;20048;-87
2022/11/07 00:32:20;;;;;;;8.65;3.47;;;10.70;99.90;;;;;;4214303;28;20063;-87
2022/11/07 00:34:21;;;;;;;7.10;3.33;;;10.70;99.90;;;;;;4241137;27;20361;-88
2022/11/07 00:36:26;;;;;;;6.75;3.60;;;10.60;99.90;;;;;;4250230;27;20424;-87
2022/11/07 00:38:27;;;;;;;10.38;3.65;;;10.70;99.90;;;;;;4233241;28;20566;-87
2022/11/07 00:40:28;;;;;;;9.60;3.47;;;10.70;99.90;;;;;;4251171;27;20050;-87
2022/11/07 00:42:28;;;;;;;9.30;3.40;;;10.70;99.90;;;;;;4233003;28;20566;-87
2022/11/07 00:44:29;;;;;;;8.35;3.58;;;10.60;99.90;;;;;;4250854;27;20121;-87
2022/11/07 00:46:30;;;;;;;6.68;4.18;;;10.60;99.90;;;;;;4251150;27;20046;-87
2022/11/07 00:48:31;;;;;;;8.88;3.90;;;10.60;99.90;;;;;;4251104;27;20050;-87
2022/11/07 00:50:33;;;;;;;8.57;5.00;;;10.70;99.90;;;;;;4231453;28;20031;-87
2022/11/07 00:52:33;;;;;;;10.23;3.30;;;10.70;99.90;;;;;;4233988;28;20044;-87
2022/11/07 00:54:34;;;;;;;7.65;3.55;;;12.00;99.90;;;;;;4236596;27;20071;-87
2022/11/07 00:56:36;;;;;;;7.85;3.90;;;10.70;99.90;;;;;;4253709;27;20403;-87
2022/11/07 00:58:37;;;;;;;12.25;3.70;;;10.70;99.90;;;;;;4234339;28;20055;-86
2022/11/07 01:00:39;;;;;;;8.30;3.17;;;10.70;99.90;;;;;;4218443;28;20098;-88
2022/11/07 01:02:41;;;;;;;10.45;3.88;;;10.70;99.90;;;;;;4252751;27;20079;-87
2022/11/07 01:07:05;;;;;;;7.30;3.67;;;10.80;99.90;;;;;;4234959;28;20082;-87
2022/11/07 01:09:19;;;;;;;6.30;3.15;;;10.80;99.90;;;;;;4217978;28;20044;-87
2022/11/07 01:11:20;;;;;;;11.05;2.85;;;10.70;99.90;;;;;;4233043;28;20113;-86
2022/11/07 01:13:22;;;;;;;12.23;4.03;;;10.70;99.90;;;;;;4251449;27;20062;-87
2022/11/07 01:15:22;;;;;;;9.10;3.60;;;10.70;99.90;;;;;;4215940;28;20438;-88
2022/11/07 01:17:23;;;;;;;6.63;3.55;;;10.70;99.90;;;;;;4233600;28;20059;-89
2022/11/07 01:19:24;;;;;;;12.50;3.60;;;10.70;99.90;;;;;;4251290;27;20130;-88
2022/11/07 01:21:24;;;;;;;8.40;3.58;;;10.80;99.90;;;;;;4215706;28;20054;-87
2022/11/07 01:23:25;;;;;;;7.85;3.58;;;10.80;99.90;;;;;;4250897;27;20089;-87
2022/11/07 01:25:26;;;;;;;12.73;4.30;;;10.80;99.90;;;;;;4229664;28;20146;-88
2022/11/07 01:27:26;;;;;;;11.63;3.60;;;10.70;99.90;;;;;;4215451;28;20456;-88
2022/11/07 01:29:28;;;;;;;7.72;3.00;;;10.80;99.90;;;;;;4231302;28;20067;-87
2022/11/07 01:31:30;;;;;;;8.48;3.30;;;10.80;99.90;;;;;;4251122;27;20430;-87
2022/11/07 01:33:33;;;;;;;6.60;2.95;;;10.90;99.90;;;;;;4251331;27;20607;-88
2022/11/07 01:35:34;;;;;;;7.95;4.18;;;10.90;99.90;;;;;;4250664;27;20086;-88
2022/11/07 01:37:35;;;;;;;11.63;3.80;;;10.90;99.90;;;;;;4232335;28;20416;-88
2022/11/07 01:39:36;;;;;;;8.02;3.60;;;10.90;99.90;;;;;;4215118;28;20051;-88
2022/11/07 01:41:37;;;;;;;10.43;3.22;;;10.80;99.90;;;;;;4251039;27;20039;-87
2022/11/07 01:43:54;;;;;;;6.05;3.08;;;10.80;99.90;;;;;;4214565;28;20062;-87
2022/11/07 01:45:55;;;;;;;9.25;3.90;;;10.90;99.90;;;;;;4250681;27;20137;-88
2022/11/07 01:48:00;;;;;;;5.95;3.03;;;10.80;99.90;;;;;;4231809;28;20128;-87
2022/11/07 01:50:05;;;;;;;11.38;3.63;;;10.80;99.90;;;;;;4231528;28;20130;-87
2022/11/07 01:52:13;;;;;;;10.20;3.60;;;10.80;99.90;;;;;;4231638;28;20055;-87
2022/11/07 01:54:17;;;;;;;9.68;4.13;;;10.80;99.90;;;;;;4214849;28;20071;-86
2022/11/07 01:56:23;;;;;;;13.73;4.18;;;10.80;99.90;;;;;;4230786;28;20558;-87
2022/11/07 01:58:23;;;;;;;7.53;3.50;;;10.80;99.90;;;;;;4249781;27;20061;-88
2022/11/07 02:00:24;;;;;;;10.73;3.75;;;10.80;99.90;;;;;;4214149;28;20135;-87
2022/11/07 02:02:26;;;;;;;6.68;2.80;;;10.80;99.90;;;;;;4215100;28;20422;-88
2022/11/07 02:04:29;;;;;;;10.88;3.47;;;11.40;99.90;;;;;;4249530;27;20391;-86
2022/11/07 02:06:35;;;;;;;10.73;3.50;;;10.80;99.90;;;;;;4231740;28;20094;-87
2022/11/07 02:08:39;;;;;;;6.78;3.03;;;10.80;99.90;;;;;;4249998;27;20064;-87
2022/11/07 02:10:41;;;;;;;10.40;3.83;;;10.80;99.90;;;;;;4214582;28;20048;-87
2022/11/07 02:12:42;;;;;;;12.20;4.63;;;10.80;99.90;;;;;;4213841;28;20101;-87
2022/11/07 02:14:44;;;;;;;10.00;3.80;;;10.80;99.90;;;;;;4250187;27;20043;-87
2022/11/07 02:16:45;;;;;;;11.82;3.50;;;10.80;99.90;;;;;;4231707;28;20054;-87
2022/11/07 02:18:46;;;;;;;8.30;3.47;;;10.80;99.90;;;;;;4214812;28;20046;-88
2022/11/07 02:20:48;;;;;;;8.70;3.80;;;10.80;99.90;;;;;;4250142;27;20051;-88
2022/11/07 02:22:49;;;;;;;9.00;2.83;;;10.80;99.90;;;;;;4231975;28;20061;-88
2022/11/07 02:24:55;;;;;;;11.10;3.33;;;10.90;99.90;;;;;;4231247;28;20052;-87
2022/11/07 02:26:57;;;;;;;9.93;2.83;;;10.90;99.90;;;;;;4217232;28;20077;-88
2022/11/07 02:28:59;;;;;;;6.00;3.00;;;10.90;99.90;;;;;;4215014;28;20051;-87
2022/11/07 02:31:00;;;;;;;9.32;2.83;;;10.90;99.90;;;;;;4201297;28;20052;-88
2022/11/07 02:33:02;;;;;;;10.55;3.13;;;10.90;99.90;;;;;;4232039;28;20051;-86
2022/11/07 02:35:06;;;;;;;10.35;2.50;;;10.90;99.90;;;;;;4232180;28;20467;-88
2022/11/07 02:37:18;;;;;;;7.13;2.50;;;10.90;99.90;;;;;;4251173;27;20027;-88
2022/11/07 02:39:19;;;;;;;11.73;2.95;;;10.90;99.90;;;;;;4232624;28;20131;-87
2022/11/07 02:41:29;;;;;;;11.73;2.70;;;10.90;99.90;;;;;;4233438;28;20044;-88
2022/11/07 02:43:32;;;;;;;10.43;2.78;;;10.90;99.90;;;;;;4234126;28;20130;-88
2022/11/07 02:45:36;;;;;;;7.95;2.20;;;10.90;99.90;;;;;;4227364;28;20082;-87
2022/11/07 02:47:38;;;;;;;5.32;2.13;;;10.90;99.90;;;;;;4249505;28;20040;-87
2022/11/07 02:49:39;;;;;;;4.93;2.67;;;10.90;99.90;;;;;;4231835;28;20051;-86
2022/11/07 02:51:40;;;;;;;9.68;2.30;;;10.90;99.90;;;;;;4265929;27;20027;-87
2022/11/07 02:53:42;;;;;;;7.50;2.30;;;10.90;99.90;;;;;;4265373;27;20047;-87
2022/11/07 02:55:43;;;;;;;5.03;1.95;;;10.90;99.90;;;;;;4261442;27;20043;-87
2022/11/07 02:57:44;;;;;;;11.00;2.30;;;10.90;99.90;;;;;;4251453;27;20069;-86
2022/11/07 02:59:47;;;;;;;10.40;2.92;;;10.90;99.90;;;;;;4234302;28;20043;-87
2022/11/07 03:01:48;;;;;;;6.28;1.92;;;10.90;99.90;;;;;;4234838;28;20052;-87
2022/11/07 03:03:50;;;;;;;11.57;3.00;;;10.90;99.90;;;;;;4256813;27;20046;-87
2022/11/07 03:05:50;;;;;;;7.15;2.95;;;10.90;99.90;;;;;;4239487;28;20091;-88
2022/11/07 03:07:51;;;;;;;13.98;2.88;;;10.90;99.90;;;;;;4239006;28;20043;-88
2022/11/07 03:09:52;;;;;;;4.38;2.00;;;10.90;99.90;;;;;;4256920;27;20049;-87
2022/11/07 03:11:52;;;;;;;9.57;3.17;;;10.90;99.90;;;;;;4221379;28;20047;-88
2022/11/07 03:13:55;;;;;;;5.75;2.00;;;10.90;99.90;;;;;;4258025;28;20054;-87
2022/11/07 03:15:56;;;;;;;8.73;2.10;;;11.00;99.90;;;;;;4257545;28;20043;-88
2022/11/07 03:17:58;;;;;;;4.28;1.67;;;11.00;99.90;;;;;;4240451;28;20044;-88
2022/11/07 03:19:58;;;;;;;7.25;1.95;;;11.00;99.90;;;;;;4255806;28;20600;-87
2022/11/07 03:21:59;;;;;;;6.50;1.80;;;11.00;99.90;;;;;;4248233;28;20047;-88
2022/11/07 03:24:00;;;;;;;9.25;2.17;;;10.90;99.90;;;;;;4213448;28;20420;-87
2022/11/07 03:26:02;;;;;;;9.07;2.03;;;11.00;99.90;;;;;;4246781;28;20538;-87
2022/11/07 03:28:03;;;;;;;4.55;2.05;;;10.90;99.90;;;;;;4247831;28;20047;-87
2022/11/07 03:30:04;;;;;;;8.27;1.80;;;10.90;99.90;;;;;;4226079;28;20044;-87
2022/11/07 03:32:05;;;;;;;10.90;2.90;;;11.00;99.90;;;;;;4215035;28;20048;-87
2022/11/07 03:34:06;;;;;;;7.15;2.00;;;11.00;99.90;;;;;;4218492;28;20558;-87
2022/11/07 03:36:07;;;;;;;9.85;2.08;;;11.00;99.90;;;;;;4213948;28;20071;-87
2022/11/07 03:38:09;;;;;;;10.18;2.13;;;11.00;99.90;;;;;;4229713;28;20052;-88
2022/11/07 03:40:10;;;;;;;13.20;2.63;;;11.00;99.90;;;;;;4230221;28;20047;-88
2022/11/07 03:42:10;;;;;;;15.75;2.75;;;10.90;99.90;;;;;;4229780;28;20410;-88
2022/11/07 03:44:12;;;;;;;10.80;2.50;;;10.90;99.90;;;;;;4229397;28;20577;-88
2022/11/07 03:46:14;;;;;;;8.60;2.75;;;10.90;99.90;;;;;;4247399;28;20050;-87
2022/11/07 03:48:15;;;;;;;5.82;2.65;;;10.90;99.90;;;;;;4247480;28;20054;-88
2022/11/07 03:50:19;;;;;;;15.85;2.63;;;10.80;99.90;;;;;;4247290;28;20403;-87
2022/11/07 03:52:20;;;;;;;17.88;2.25;;;10.80;99.90;;;;;;4229057;28;20081;-87
2022/11/07 03:54:20;;;;;;;9.65;1.90;;;10.80;99.90;;;;;;4228011;28;20462;-87
2022/11/07 03:56:22;;;;;;;9.73;3.25;;;10.80;99.90;;;;;;4247095;28;20047;-87
2022/11/07 03:58:24;;;;;;;7.03;3.05;;;10.70;99.90;;;;;;4247178;28;20043;-88
2022/11/07 04:00:26;;;;;;;13.48;2.47;;;10.70;99.90;;;;;;4228026;28;20087;-87
2022/11/07 04:02:28;;;;;;;11.20;3.55;;;10.80;99.90;;;;;;4246863;28;20114;-87
2022/11/07 04:04:29;;;;;;;9.05;2.40;;;10.70;99.90;;;;;;4229330;28;20107;-87
2022/11/07 04:06:30;;;;;;;7.80;2.53;;;10.80;99.90;;;;;;4229449;28;20491;-88
2022/11/07 04:08:31;;;;;;;8.07;2.35;;;10.70;99.90;;;;;;4212785;28;20039;-87
2022/11/07 04:10:32;;;;;;;11.38;2.00;;;10.70;99.90;;;;;;4245794;28;20038;-88
2022/11/07 04:17:17;;;;;;;;;;;10.70;99.90;;;;;;4249436;28;19955;-87
2022/11/07 04:19:19;;;;;;;9.73;2.10;;;10.70;99.90;;;;;;4230042;28;20010;-87
2022/11/07 04:21:20;;;;;;;6.93;1.70;;;10.70;99.90;;;;;;4244490;27;20040;-88
2022/11/07 04:23:21;;;;;;;9.25;2.22;;;10.70;99.90;;;;;;4231452;28;20140;-87
2022/11/07 04:27:41;;;;;;;11.07;2.55;;;10.70;99.90;;;;;;4215881;28;20101;-88
2022/11/07 04:27:42;;;;;;;9.02;1.95;;;10.70;99.90;;;;;;4249128;27;20130;-88
2022/11/07 04:29:42;;;;;;;8.23;2.00;;;10.70;99.90;;;;;;4229487;28;20055;-87
2022/11/07 04:31:44;;;;;;;12.10;2.83;;;10.60;99.90;;;;;;4232559;28;20109;-87
2022/11/07 04:33:45;;;;;;;7.28;2.00;;;10.70;99.90;;;;;;4217069;28;20048;-87
2022/11/07 04:35:45;;;;;;;8.05;2.40;;;10.60;99.90;;;;;;4251375;27;20039;-88
2022/11/07 04:37:48;;;;;;;9.88;1.73;;;10.70;99.90;;;;;;4215763;28;20074;-87
2022/11/07 04:39:49;;;;;;;7.30;2.33;;;10.60;99.90;;;;;;4232973;28;20132;-88
2022/11/07 04:41:50;;;;;;;8.02;2.47;;;10.60;99.90;;;;;;4251425;27;20072;-88
2022/11/07 04:43:51;;;;;;;7.63;2.03;;;10.60;99.90;;;;;;4216277;28;20039;-87
2022/11/07 04:45:52;;;;;;;11.23;2.40;;;10.60;99.90;;;;;;4232759;28;20051;-88
2022/11/07 04:47:53;;;;;;;11.18;2.28;;;10.60;99.90;;;;;;4219184;28;20063;-86
2022/11/07 04:49:54;;;;;;;11.32;2.20;;;10.60;99.90;;;;;;4244728;27;20047;-87
2022/11/07 04:51:58;;;;;;;8.80;2.22;;;10.60;99.90;;;;;;4232134;28;20510;-87
2022/11/07 04:53:59;;;;;;;10.80;2.38;;;10.70;99.90;;;;;;4249593;27;20035;-88
2022/11/07 04:56:00;;;;;;;11.65;2.58;;;10.70;99.90;;;;;;4248839;27;20031;-87
2022/11/07 04:58:00;;;;;;;10.13;2.80;;;10.70;99.90;;;;;;4231758;28;20100;-88
2022/11/07 05:00:03;;;;;;;8.13;2.20;;;10.70;99.90;;;;;;4232104;28;20075;-87
2022/11/07 05:02:04;;;;;;;12.48;2.22;;;10.70;99.90;;;;;;4249482;27;20078;-87
2022/11/07 05:04:06;;;;;;;7.05;2.40;;;10.70;99.90;;;;;;4210684;28;20040;-87
2022/11/07 05:06:11;;;;;;;6.60;2.28;;;10.70;99.90;;;;;;4232640;28;20580;-87
2022/11/07 05:08:12;;;;;;;23.75;3.83;;;10.70;99.90;;;;;;4250156;27;20119;-88
2022/11/07 05:10:25;;;;;;;11.77;3.00;;;10.70;99.90;;;;;;4250082;27;20050;-88
2022/11/07 05:12:25;;;;;;;17.88;2.85;;;10.70;99.90;;;;;;4249907;27;20387;-87
2022/11/07 05:14:26;;;;;;;6.55;2.13;;;10.70;99.90;;;;;;4214877;28;20134;-88
2022/11/07 05:16:30;;;;;;;9.48;2.35;;;10.70;99.90;;;;;;4221967;28;20055;-87
2022/11/07 05:18:30;;;;;;;8.93;2.53;;;10.70;99.90;;;;;;4231565;28;20468;-87
2022/11/07 05:20:36;;;;;;;14.45;3.10;;;10.70;99.90;;;;;;4245269;27;20043;-87
2022/11/07 05:24:56;;;;;;;11.10;2.42;;;10.70;99.90;;;;;;4250135;27;20475;-87
2022/11/07 05:26:59;;;;;;;8.77;2.42;;;10.60;99.90;;;;;;4231981;28;20055;-87
2022/11/07 05:29:00;;;;;;;13.70;3.63;;;10.60;99.90;;;;;;4230993;28;20044;-87
2022/11/07 05:31:03;;;;;;;13.85;2.45;;;10.60;99.90;;;;;;4210939;28;20413;-87
2022/11/07 05:33:04;;;;;;;5.32;2.30;;;10.50;99.90;;;;;;4228483;28;20047;-88
2022/11/07 05:35:05;;;;;;;11.07;2.63;;;10.60;99.90;;;;;;4228329;28;20089;-88
2022/11/07 05:37:07;;;;;;;11.60;2.92;;;10.50;99.90;;;;;;4212993;28;20135;-88
2022/11/07 05:39:08;;;;;;;22.00;2.70;;;10.50;99.90;;;;;;4246730;27;20039;-88
2022/11/07 05:41:09;;;;;;;11.13;3.53;;;10.50;99.90;;;;;;4214159;28;20079;-88
2022/11/07 05:43:12;;;;;;;13.10;3.85;;;10.50;99.90;;;;;;4249849;27;20444;-89
2022/11/07 05:45:13;;;;;;;9.55;2.90;;;10.50;99.90;;;;;;4249337;27;20050;-87
2022/11/07 05:47:14;;;;;;;10.07;3.08;;;10.50;99.90;;;;;;4231020;28;20043;-88
2022/11/07 05:49:16;;;;;;;7.88;2.75;;;10.50;99.90;;;;;;4242521;27;20043;-87
2022/11/07 05:51:16;;;;;;;7.72;2.75;;;10.50;99.90;;;;;;4249720;27;20049;-87
2022/11/07 05:53:19;;;;;;;15.20;2.55;;;10.50;99.90;;;;;;4249064;27;20071;-88
2022/11/07 05:55:22;;;;;;;12.80;2.67;;;10.50;99.90;;;;;;4244212;27;20475;-88
2022/11/07 05:57:24;;;;;;;8.48;2.95;;;10.50;99.90;;;;;;4248769;27;20043;-87
2022/11/07 05:59:24;;;;;;;6.00;2.30;;;10.50;99.90;;;;;;4214044;28;20050;-87
2022/11/07 06:01:25;;;;;;;8.25;3.60;;;10.50;99.90;;;;;;4223492;28;20048;-87
2022/11/07 06:03:26;;;;;;;17.67;3.15;;;10.50;99.90;;;;;;4233984;28;20043;-88
2022/11/07 06:05:27;;;;;;;17.50;3.40;;;10.50;99.90;;;;;;4249460;27;20046;-87
2022/11/07 06:07:37;;;;;;;12.65;3.97;;;10.50;99.90;;;;;;4251344;27;20478;-87
2022/11/07 06:09:38;;;;;;;10.43;3.35;;;10.50;99.90;;;;;;4232984;28;20120;-87
2022/11/07 06:11:39;;;;;;;12.45;3.45;;;10.50;99.90;;;;;;4232314;28;20126;-87
2022/11/07 06:13:40;;;;;;;11.68;3.60;;;10.50;99.90;;;;;;4217585;28;20055;-87
2022/11/07 06:15:42;;;;;;;10.23;3.05;;;10.50;99.90;;;;;;4233498;28;20042;-87
2022/11/07 06:17:42;;;;;;;11.55;3.63;;;10.50;99.90;;;;;;4253292;27;20047;-87
2022/11/07 06:19:43;;;;;;;7.97;3.08;;;10.50;99.90;;;;;;4227409;28;20070;-87
2022/11/07 06:21:44;;;;;;;8.38;3.47;;;10.50;99.90;;;;;;4221778;28;20071;-87
2022/11/07 06:23:44;;;;;;;10.32;3.40;;;10.50;99.90;;;;;;4221672;28;20164;-88
2022/11/07 06:25:45;;;;;;;7.35;3.03;;;10.50;99.90;;;;;;4237446;27;20042;-87
2022/11/07 06:27:46;;;;;;;5.72;2.47;;;10.50;99.90;;;;;;4248660;27;20150;-87
2022/11/07 06:29:48;;;;;;;11.65;3.03;;;10.50;99.90;;;;;;4212158;28;20063;-87
2022/11/07 06:31:48;;;;;;;10.10;3.17;;;10.50;99.90;;;;;;4242394;27;20075;-86
2022/11/07 06:33:50;;;;;;;9.50;3.20;;;10.50;99.90;;;;;;4213431;28;20051;-87
2022/11/07 06:35:53;;;;;;;10.85;2.85;;;10.60;99.90;;;;;;4248887;27;20395;-87
2022/11/07 06:37:54;;;;;;;8.65;3.17;;;10.50;99.90;;;;;;4211244;28;20036;-87
2022/11/07 06:39:56;;;;;;;8.70;3.03;;;10.60;99.90;;;;;;4234299;27;20051;-87
2022/11/07 06:41:58;;;;;;;9.45;2.85;;;10.60;99.90;;;;;;4248467;27;20392;-88
2022/11/07 06:43:59;;;;;;;10.35;2.88;;;10.50;99.90;;;;;;4230560;28;20046;-88
2022/11/07 06:46:05;;;;;;;13.23;4.35;;;10.50;99.90;;;;;;4214619;28;20464;-88
2022/11/07 06:48:07;;;;;;;13.52;3.20;;;10.50;99.90;;;;;;4248451;27;20122;-88
2022/11/07 06:50:08;;;;;;;9.05;3.33;;;10.60;99.90;;;;;;4249710;27;20142;-88
2022/11/07 06:52:09;;;;;;;7.65;3.10;;;10.60;99.90;;;;;;4248924;27;20047;-88
2022/11/07 06:54:12;;;;;;;10.43;2.80;;;10.60;99.90;;;;;;4229772;28;20550;-88
2022/11/07 06:56:14;;;;;;;9.70;3.15;;;10.60;99.90;;;;;;4215996;28;20048;-88
2022/11/07 06:58:15;;;;;;;7.65;2.83;;;10.60;99.90;;;;;;4218907;28;20050;-88
2022/11/07 07:00:16;;;;;;;9.15;2.60;;;10.60;99.90;;;;;;4213108;28;20040;-88
2022/11/07 07:02:17;;;;;;;14.25;3.13;;;10.60;99.90;;;;;;4229467;28;20047;-88
2022/11/07 07:04:19;;;;;;;10.70;3.10;;;10.60;99.90;;;;;;4248515;27;20415;-87
2022/11/07 07:06:19;;;;;;;5.93;2.75;;;10.60;99.90;;;;;;4213443;28;20079;-87
2022/11/07 07:08:20;;;;;;;7.80;2.58;;;10.60;99.90;;;;;;4213621;28;20048;-87
2022/11/07 07:10:22;;;;;;;8.13;2.65;;;10.60;99.90;;;;;;4225592;28;20044;-87
2022/11/07 07:12:22;;;;;;;11.57;2.55;;;10.60;99.90;;;;;;4224737;28;20408;-87
2022/11/07 07:14:23;;;;;;;9.02;2.33;;;10.60;99.90;;;;;;4237956;27;20054;-87
2022/11/07 07:16:24;;;;;;;8.60;2.90;;;10.60;99.90;;;;;;4237358;28;20121;-87
2022/11/07 07:18:26;;;;;;;5.97;2.78;;;10.60;99.90;;;;;;4212937;28;20459;-87
2022/11/07 07:20:29;;;;;;;8.95;3.35;;;10.60;99.90;;;;;;4247812;28;20066;-87
2022/11/07 07:22:29;;;;;;;10.45;2.40;;;10.60;99.90;;;;;;4229925;28;20051;-87
2022/11/07 07:24:30;;;;;;;7.68;2.38;;;10.60;99.90;;;;;;4229360;28;20047;-88
2022/11/07 07:26:32;;;;;;;9.10;2.17;;;10.60;99.90;;;;;;4247574;28;20049;-87
2022/11/07 07:28:35;;;;;;;6.38;2.58;;;10.60;99.90;;;;;;4229602;28;20044;-88
2022/11/07 07:30:37;;;;;;;13.15;3.60;;;10.60;99.90;;;;;;4244581;28;20039;-87
2022/11/07 07:32:38;;;;;;;11.40;3.33;;;10.60;99.90;;;;;;4212703;28;20552;-87
2022/11/07 07:34:39;;;;;;;6.55;3.33;;;10.60;99.90;;;;;;4229987;28;20503;-87
2022/11/07 07:36:40;;;;;;;8.65;2.63;;;10.60;99.90;;;;;;4247815;28;20043;-87
2022/11/07 07:38:42;;;;;;;11.65;2.97;;;10.60;99.90;;;;;;4228981;28;20040;-87
2022/11/07 07:40:43;;;;;;;7.70;3.22;;;10.60;99.90;;;;;;4248033;28;20044;-87
2022/11/07 07:42:44;;;;;;;12.43;3.75;;;10.60;99.90;;;;;;4229427;28;20040;-88
2022/11/07 07:44:44;;;;;;;7.63;3.50;;;10.60;99.90;;;;;;4229673;28;20051;-87
2022/11/07 07:46:45;;;;;;;12.95;3.65;;;10.70;99.90;;;;;;4225109;28;20036;-88
2022/11/07 07:48:46;;;;;;;15.90;4.05;;;10.70;99.90;;;;;;4212911;28;20062;-87
2022/11/07 07:50:51;;;;;;;12.43;4.32;;;10.70;99.90;;;;;;4227642;28;20103;-86
2022/11/07 07:52:56;;;;;;;8.55;3.60;;;10.70;99.90;;;;;;4241562;28;20050;-85
2022/11/07 07:54:57;;;;;;;14.85;3.60;;;10.70;99.90;;;;;;4235429;27;20111;-86
2022/11/07 07:57:00;;;;;;;10.40;4.07;;;10.70;99.90;;;;;;4226524;28;20048;-85
2022/11/07 07:59:01;;;;;;;9.48;4.30;;;10.70;99.90;;;;;;4217192;28;20058;-86
2022/11/07 08:01:08;;;;;;;13.23;4.63;;;10.70;99.90;;;;;;4220647;28;20122;-86
2022/11/07 08:03:11;;;;;;;13.23;4.15;;;10.70;99.90;;;;;;4232869;28;20510;-85
2022/11/07 08:05:13;;;;;;;17.92;5.20;;;10.80;99.90;;;;;;4251514;27;20410;-88
2022/11/07 08:07:14;;;;;;;13.30;4.10;;;10.70;99.90;;;;;;4233169;28;20142;-86
2022/11/07 08:09:14;;;;;;;11.38;3.58;;;10.80;99.90;;;;;;4223951;28;20492;-88
2022/11/07 08:11:16;;;;;;;11.73;3.90;;;10.80;99.90;;;;;;4245216;27;20047;-88
2022/11/07 08:13:17;;;;;;;10.15;4.22;;;10.80;99.90;;;;;;4216345;28;20463;-88
2022/11/07 08:15:18;;;;;;;12.48;4.93;;;10.80;99.90;;;;;;4251298;27;20039;-88
2022/11/07 08:17:19;;;;;;;16.55;3.88;;;10.70;99.90;;;;;;4233401;28;20047;-88
2022/11/07 08:19:20;;;;;;;14.18;3.92;;;10.80;99.90;;;;;;4233295;28;20498;-87
2022/11/07 08:21:21;;;;;;;13.77;4.05;;;10.80;99.90;;;;;;4234870;28;20079;-88
2022/11/07 08:23:23;;;;;;;11.98;4.53;;;10.80;99.90;;;;;;4236062;28;20039;-86
2022/11/07 08:25:24;;;;;;;12.45;4.53;;;10.80;99.90;;;;;;4233649;28;20079;-86
2022/11/07 08:27:24;;;;;;;11.93;3.92;;;10.80;99.90;;;;;;4250918;27;20403;-87
2022/11/07 08:29:25;;;;;;;11.18;4.70;;;10.80;99.90;;;;;;4251495;27;20532;-86
2022/11/07 08:31:26;;;;;;;16.40;4.53;;;10.80;99.90;;;;;;4244298;27;20554;-89
2022/11/07 08:33:27;;;;;;;12.43;4.03;;;10.90;99.90;;;;;;4226535;28;20486;-86
2022/11/07 08:35:29;;;;;;;10.40;4.68;;;10.90;99.90;;;;;;4243466;27;20046;-87
2022/11/07 08:37:30;;;;;;;15.88;4.47;;;10.90;99.90;;;;;;4243067;27;20038;-88
2022/11/07 08:39:31;;;;;;;12.82;4.22;;;10.90;99.90;;;;;;4224043;28;20051;-87
2022/11/07 08:41:32;;;;;;;19.52;4.90;;;10.90;99.90;;;;;;4250516;27;20164;-87
2022/11/07 08:43:33;;;;;;;12.48;3.97;;;10.90;99.90;;;;;;4232788;28;20040;-86
2022/11/07 08:45:33;;;;;;;12.23;4.72;;;10.90;99.90;;;;;;4247784;27;20040;-87
2022/11/07 08:47:34;;;;;;;11.88;4.50;;;10.90;99.90;;;;;;4229518;28;20067;-88
2022/11/07 08:49:35;;;;;;;15.82;4.57;;;10.90;99.90;;;;;;4229577;28;20044;-88
2022/11/07 08:51:36;;;;;;;11.70;4.22;;;10.90;99.90;;;;;;4236861;27;20051;-87
2022/11/07 08:53:36;;;;;;;18.00;4.55;;;10.90;99.90;;;;;;4237045;27;20532;-88
2022/11/07 08:55:38;;;;;;;16.55;4.90;;;11.00;99.90;;;;;;4232212;28;20126;-87
2022/11/07 08:57:40;;;;;;;18.73;4.60;;;11.00;99.90;;;;;;4232581;28;20046;-87
2022/11/07 08:59:40;;;;;;;15.48;4.50;;;11.00;99.90;;;;;;4219181;28;20524;-88
2022/11/07 09:01:41;;;;;;;15.75;4.55;;;11.00;99.90;;;;;;4237787;27;20047;-86
2022/11/07 09:03:42;;;;;;;12.55;4.15;;;11.00;99.90;;;;;;4237904;27;20039;-87
2022/11/07 09:05:42;;;;;;;20.70;4.55;;;11.00;99.90;;;;;;4219867;28;20052;-86
2022/11/07 09:07:43;;;;;;;26.08;4.47;;;11.10;99.90;;;;;;4232037;28;20043;-86
2022/11/07 09:09:44;;;;;;;12.05;3.70;;;11.10;99.90;;;;;;4237982;27;20038;-87
2022/11/07 09:11:45;;;;;;;12.23;4.82;;;11.10;99.90;;;;;;4248886;27;20047;-87
2022/11/07 09:13:46;;;;;;;14.82;3.83;;;11.10;99.90;;;;;;4234763;27;20411;-86
2022/11/07 09:15:47;;;;;;;14.38;4.18;;;11.20;99.90;;;;;;4236084;27;20116;-86
2022/11/07 09:17:49;;;;;;;18.35;4.63;;;11.20;99.90;;;;;;4246684;27;20055;-87
2022/11/07 09:19:50;;;;;;;11.68;4.05;;;11.20;99.90;;;;;;4247576;27;20518;-87
2022/11/07 09:21:51;;;;;;;15.27;3.80;;;11.30;99.90;;;;;;4238397;27;20032;-86
2022/11/07 09:23:52;;;;;;;10.55;3.67;;;11.30;99.90;;;;;;4230553;28;20075;-86
2022/11/07 09:25:52;;;;;;;13.65;3.65;;;11.30;99.90;;;;;;4239389;27;20050;-85
2022/11/07 09:27:54;;;;;;;21.98;4.80;;;11.40;99.90;;;;;;4219454;28;20060;-85
2022/11/07 09:29:55;;;;;;;11.00;3.75;;;11.40;99.90;;;;;;4245873;27;22927;-86
2022/11/07 09:31:56;;;;;;;13.82;3.47;;;11.40;99.90;;;;;;4213592;28;20127;-86
2022/11/07 09:33:56;;;;;;;10.73;3.83;;;11.40;99.90;;;;;;4234350;27;20092;-86
2022/11/07 09:36:03;;;;;;;13.13;4.15;;;11.50;99.90;;;;;;4222492;28;20036;-88
2022/11/07 09:38:03;;;;;;;12.05;4.53;;;11.50;99.90;;;;;;4207145;28;20690;-89
2022/11/07 09:40:06;;;;;;;14.15;3.53;;;11.50;99.90;;;;;;4238749;27;20046;-89
2022/11/07 09:42:31;;;;;;;16.05;3.70;;;11.60;99.90;;;;;;4229117;28;20048;-88
2022/11/07 09:44:58;;;;;;;10.73;3.75;;;11.60;99.90;;;;;;4249712;27;20035;-88
2022/11/07 09:47:18;;;;;;;11.32;4.00;;;11.60;99.90;;;;;;4236013;27;20128;-89
2022/11/07 09:49:41;;;;;;;11.00;3.58;;;11.60;99.90;;;;;;4237823;27;20040;-89
2022/11/07 09:51:49;;;;;;;12.43;3.42;;;11.70;99.90;;;;;;4215641;28;20111;-90
2022/11/07 09:53:56;;;;;;;13.32;3.55;;;11.70;99.90;;;;;;4241624;27;20523;-90
2022/11/07 09:56:03;;;;;;;12.00;3.13;;;11.80;99.90;;;;;;4249266;27;20035;-88
2022/11/07 09:58:22;;;;;;;12.38;3.67;;;11.80;99.90;;;;;;4223816;28;20058;-86
2022/11/07 10:00:23;;;;;;;17.17;3.72;;;11.80;99.90;;;;;;4227874;28;20488;-88
2022/11/07 10:02:35;;;;;;;9.85;3.00;;;11.90;99.90;;;;;;4218011;28;20086;-86
2022/11/07 10:04:37;;;;;;;20.70;3.15;;;11.90;99.90;;;;;;4210319;28;20060;-87
2022/11/07 10:06:48;;;;;;;15.63;3.28;;;11.90;99.90;;;;;;4232278;28;20032;-86
2022/11/07 10:09:13;;;;;;;12.50;3.10;;;11.90;99.90;;;;;;4227549;28;20047;-86
2022/11/07 10:11:32;;;;;;;11.43;3.20;;;11.90;99.90;;;;;;4233496;27;20046;-88
2022/11/07 10:13:32;;;;;;;;;;;11.90;99.90;;;;;;4241165;27;20501;-87
2022/11/07 10:15:46;;;;;;;9.25;2.60;;;11.90;99.90;;;;;;4223130;28;19923;-87
2022/11/07 10:17:53;;;;;;;15.32;3.92;;;11.80;99.90;;;;;;4236619;27;20582;-86
2022/11/07 10:20:17;;;;;;;14.30;3.40;;;11.90;99.90;;;;;;4222982;28;20043;-86
2022/11/07 10:22:39;;;;;;;9.88;2.50;;;11.90;99.90;;;;;;4233386;27;20436;-88
2022/11/07 10:25:14;;;;;;;11.13;2.60;;;12.00;99.90;;;;;;4246501;27;20487;-87
2022/11/07 10:27:14;;;;;;;7.15;2.28;;;12.00;99.90;;;;;;4225330;28;20123;-87
2022/11/07 10:29:18;;;;;;;11.75;2.80;;;12.00;99.90;;;;;;4229930;28;20435;-88
2022/11/07 10:31:19;;;;;;;14.57;3.33;;;12.10;99.90;;;;;;4232851;28;20050;-89
2022/11/07 10:33:40;;;;;;;9.18;2.90;;;12.10;99.90;;;;;;4198255;28;20048;-88
2022/11/07 10:35:46;;;;;;;11.85;3.00;;;12.20;99.90;;;;;;4214416;28;20166;-89
2022/11/07 10:38:03;;;;;;;9.50;2.85;;;12.30;99.90;;;;;;4224648;28;20109;-88
2022/11/07 10:40:17;;;;;;;7.93;2.88;;;12.30;99.90;;;;;;4217961;28;20418;-90
2022/11/07 10:42:22;;;;;;;9.60;2.95;;;12.30;99.90;;;;;;4230588;28;20055;-90
2022/11/07 10:44:26;;;;;;;6.03;2.50;;;12.30;99.90;;;;;;4230798;28;20050;-90
2022/11/07 10:46:38;;;;;;;14.10;3.03;;;12.30;99.90;;;;;;4215325;28;20166;-90